createdAt,value
2023-02-04T00:07:17.304Z,996.4
2023-02-04T00:26:32.258Z,996.4
2023-02-04T00:45:49.701Z,996.6
2023-02-04T01:05:06.470Z,996.8
2023-02-04T01:24:22.882Z,996.9
2023-02-04T01:43:40.228Z,997.2
2023-02-04T02:02:58.640Z,997.4
2023-02-04T02:22:15.288Z,997.4
2023-02-04T02:41:31.830Z,997.6
2023-02-04T03:00:46.136Z,997.6
2023-02-04T03:20:01.954Z,997.7
2023-02-04T03:39:19.513Z,997.9
2023-02-04T03:58:35.163Z,998
2023-02-04T04:17:52.256Z,998.2
2023-02-04T04:37:09.016Z,998.3
2023-02-04T04:56:27.808Z,998.6
2023-02-04T05:15:46.057Z,998.5
2023-02-04T05:35:01.481Z,998.7
2023-02-04T05:54:18.760Z,998.9
2023-02-04T06:13:35.985Z,999.1
2023-02-04T06:32:53.129Z,999.4
2023-02-04T06:52:09.434Z,999.5
2023-02-04T07:11:25.941Z,999.7
2023-02-04T07:30:42.546Z,999.9
2023-02-04T07:49:58.747Z,1000
2023-02-04T08:09:17.364Z,1000.1
2023-02-04T08:28:37.987Z,1000.3
2023-02-04T08:47:56.388Z,1000.5
2023-02-04T09:07:15.578Z,1000.8
2023-02-04T09:26:34.492Z,1001
2023-02-04T09:46:02.784Z,1001.2
2023-02-04T10:05:13.953Z,1001.2
2023-02-04T10:24:29.765Z,1001.4
2023-02-04T10:43:47.518Z,1001.5
2023-02-04T11:03:03.197Z,1001.5
2023-02-04T11:22:21.256Z,1001.4
2023-02-04T11:41:41.317Z,1001.4
2023-02-04T12:00:58.345Z,1001.5
2023-02-04T12:20:14.821Z,1001.4
2023-02-04T12:39:32.586Z,1001.6
2023-02-04T12:58:50.221Z,1001.5
2023-02-04T13:18:08.334Z,1001.6
2023-02-04T13:37:24.193Z,1001.6
2023-02-04T13:56:41.058Z,1001.6
2023-02-04T14:15:57.542Z,1001.3
2023-02-04T14:35:15.252Z,1001.5
2023-02-04T14:54:34.052Z,1001.6
2023-02-04T15:13:50.300Z,1001.7
2023-02-04T15:33:08.734Z,1001.8
2023-02-04T15:52:29.415Z,1001.8
2023-02-04T16:11:42.792Z,1001.9
2023-02-04T16:30:59.667Z,1002
2023-02-04T16:50:16.134Z,1002.1
2023-02-04T17:09:29.655Z,1002.4
2023-02-04T17:28:46.150Z,1002.4
2023-02-04T17:48:02.200Z,1002.5
2023-02-04T18:07:15.190Z,1002.7
2023-02-04T18:26:30.817Z,1002.6
2023-02-04T18:45:47.471Z,1002.6
2023-02-04T19:05:15.539Z,1002.6
2023-02-04T19:24:22.348Z,1002.7
2023-02-04T19:43:35.457Z,1002.7
2023-02-04T20:02:47.599Z,1002.8
2023-02-04T20:22:01.861Z,1002.8
2023-02-04T20:41:18.143Z,1002.9
2023-02-04T21:00:35.701Z,1002.9
2023-02-04T21:19:56.110Z,1002.7
2023-02-04T21:39:10.752Z,1002.9
2023-02-04T21:58:28.062Z,1002.9
2023-02-04T22:17:45.345Z,1002.9
2023-02-04T22:37:02.978Z,1002.8
2023-02-04T22:56:20.442Z,1002.6
2023-02-04T23:15:36.284Z,1002.7
2023-02-04T23:34:54.564Z,1003.1
2023-02-04T23:54:13.509Z,1002.9
